Linton-on-ouse, United Kingdom
Current Conditions -  °F | °C
As of 11:50 AM on Saturday 20 Dec 2014 (Local Time) from EGXU Reporting Station
Clear Clear  
Wind Chill: 39°   Ceiling: Unl
Heat Index: 46°   Visibility: 6mi
Dew Point: 46°   Wind: 17mph
Humidity: 100%   Direction: 280°W
Pressure: 30.12"   Gusts: 29mph
Location:  54.05°N, 1.25°W
Report Text: EGXU 201150Z AUTO 28015G25KT 9999 // NCD 08/08 Q1020
Loading
Personal Weather Stations






























Interactive Weather Map New forecast layout! Learn more

10-Day Weather Forecast

Advertisements
Track Severe Weather on mobile